createdAt,value
2016-11-25T00:00:00.289Z,958.24
2016-11-25T00:01:00.279Z,958.18
2016-11-25T00:02:00.264Z,958.12
2016-11-25T00:03:00.248Z,958.11
2016-11-25T00:04:00.237Z,958.12
2016-11-25T00:05:00.222Z,958.1
2016-11-25T00:06:00.209Z,958.03
2016-11-25T00:07:00.196Z,958.06
2016-11-25T00:08:00.179Z,958.06
2016-11-25T00:09:00.170Z,958.07
2016-11-25T00:10:00.157Z,958.05
2016-11-25T00:11:00.140Z,958.11
2016-11-25T00:12:00.124Z,958.1
2016-11-25T00:13:00.111Z,958.12
2016-11-25T00:14:00.098Z,958.08
2016-11-25T00:15:00.085Z,958.11
2016-11-25T00:16:00.070Z,958.09
2016-11-25T00:17:00.057Z,958.05
2016-11-25T00:18:00.043Z,958.05
2016-11-25T00:19:00.029Z,958.06
2016-11-25T00:20:00.015Z,958.07
2016-11-25T00:21:00.004Z,958.07
2016-11-25T00:21:59.991Z,958.07
2016-11-25T00:22:59.974Z,958
2016-11-25T00:23:59.961Z,958
2016-11-25T00:24:59.948Z,958.01
2016-11-25T00:25:59.933Z,958.05
2016-11-25T00:26:59.922Z,958.06
2016-11-25T00:27:59.907Z,958.03
2016-11-25T00:28:59.893Z,958.07
2016-11-25T00:29:59.879Z,958.04
2016-11-25T00:30:59.866Z,958.06
2016-11-25T00:31:59.854Z,958.05
2016-11-25T00:32:59.839Z,958.14
2016-11-25T00:33:59.825Z,958.1
2016-11-25T00:34:59.811Z,958.12
2016-11-25T00:35:59.798Z,958.15
2016-11-25T00:36:59.785Z,958.11
2016-11-25T00:37:59.770Z,958.11
2016-11-25T00:38:59.758Z,958.16
2016-11-25T00:39:59.744Z,958.17
2016-11-25T00:40:59.730Z,958.19
2016-11-25T00:41:59.716Z,958.18
2016-11-25T00:42:59.703Z,958.22
2016-11-25T00:43:59.691Z,958.2
2016-11-25T00:44:59.676Z,958.21
2016-11-25T00:45:59.663Z,958.24
2016-11-25T00:46:59.648Z,958.23
2016-11-25T00:47:59.637Z,958.23
2016-11-25T00:48:59.620Z,958.21
2016-11-25T00:49:59.608Z,958.17
2016-11-25T00:50:59.595Z,958.15
2016-11-25T00:51:59.579Z,958.17
2016-11-25T00:52:59.567Z,958.15
2016-11-25T00:53:59.553Z,958.14
2016-11-25T00:54:59.540Z,958.13
2016-11-25T00:55:59.525Z,958.09
2016-11-25T00:56:59.511Z,958.07
2016-11-25T00:57:59.498Z,958.11
2016-11-25T00:58:59.484Z,958.1
2016-11-25T00:59:59.471Z,958.13
2016-11-25T01:00:59.457Z,958.16
2016-11-25T01:01:59.443Z,958.22
2016-11-25T01:02:59.429Z,958.22
2016-11-25T01:03:59.416Z,958.25
2016-11-25T01:04:59.402Z,958.28
2016-11-25T01:05:59.388Z,958.27
2016-11-25T01:06:59.373Z,958.28
2016-11-25T01:07:59.361Z,958.26
2016-11-25T01:08:59.347Z,958.29
2016-11-25T01:09:59.334Z,958.24
2016-11-25T01:10:59.320Z,958.28
2016-11-25T01:11:59.306Z,958.24
2016-11-25T01:12:59.292Z,958.23
2016-11-25T01:13:59.278Z,958.23
2016-11-25T01:14:59.266Z,958.26
2016-11-25T01:15:59.252Z,958.21
2016-11-25T01:16:59.238Z,958.22
2016-11-25T01:17:59.225Z,958.23
2016-11-25T01:18:59.211Z,958.22
2016-11-25T01:19:59.196Z,958.2
2016-11-25T01:20:59.182Z,958.19
2016-11-25T01:21:59.168Z,958.16
2016-11-25T01:22:59.153Z,958.15
2016-11-25T01:23:59.141Z,958.13
2016-11-25T01:24:59.127Z,958.16
2016-11-25T01:25:59.113Z,958.16
2016-11-25T01:26:59.099Z,958.14
2016-11-25T01:27:59.086Z,958.14
2016-11-25T01:28:59.071Z,958.05
2016-11-25T01:29:59.057Z,958.05
2016-11-25T01:30:59.045Z,958.07
2016-11-25T01:31:59.029Z,958.03
2016-11-25T01:32:59.016Z,958.02
2016-11-25T01:33:59.002Z,957.98
2016-11-25T01:34:58.988Z,958.02
2016-11-25T01:35:58.973Z,957.98
2016-11-25T01:36:58.960Z,958.02
2016-11-25T01:37:58.946Z,957.95
2016-11-25T01:38:58.932Z,957.98
2016-11-25T01:39:58.918Z,957.95
2016-11-25T01:40:58.904Z,958.02
2016-11-25T01:41:58.890Z,958.04
2016-11-25T01:42:58.875Z,958.03
2016-11-25T01:43:58.862Z,958.04
2016-11-25T01:44:58.848Z,958.04
2016-11-25T01:45:58.834Z,958.07
2016-11-25T01:46:58.820Z,958.05
2016-11-25T01:47:58.806Z,958.04
2016-11-25T01:48:58.792Z,958.07
2016-11-25T01:49:58.778Z,958.08
2016-11-25T01:50:58.763Z,958.07
2016-11-25T01:51:58.749Z,958
2016-11-25T01:52:58.736Z,957.97
2016-11-25T01:53:58.721Z,958.04
2016-11-25T01:54:58.707Z,957.97
2016-11-25T01:55:58.692Z,957.98
2016-11-25T01:56:58.680Z,957.96
2016-11-25T01:57:58.665Z,957.98
2016-11-25T01:58:58.652Z,957.99
2016-11-25T01:59:58.638Z,957.94
2016-11-25T02:00:58.626Z,957.93
2016-11-25T02:01:58.610Z,957.87
2016-11-25T02:02:58.597Z,957.9
2016-11-25T02:03:58.584Z,957.89
2016-11-25T02:04:58.569Z,957.89
2016-11-25T02:05:58.555Z,957.9
2016-11-25T02:06:58.541Z,957.89
2016-11-25T02:07:58.528Z,957.92
2016-11-25T02:08:58.513Z,957.88
2016-11-25T02:09:58.500Z,957.88
2016-11-25T02:10:58.486Z,957.84
2016-11-25T02:11:58.472Z,957.82
2016-11-25T02:12:58.458Z,957.84
2016-11-25T02:13:58.444Z,957.85
2016-11-25T02:14:58.431Z,957.82
2016-11-25T02:15:58.415Z,957.83
2016-11-25T02:16:58.403Z,957.83
2016-11-25T02:17:58.389Z,957.87
2016-11-25T02:18:58.375Z,957.86
2016-11-25T02:19:58.360Z,957.85
2016-11-25T02:20:58.346Z,957.84
2016-11-25T02:21:58.333Z,957.79
2016-11-25T02:22:58.319Z,957.8
2016-11-25T02:23:58.304Z,957.76
2016-11-25T02:24:58.291Z,957.73
2016-11-25T02:25:58.277Z,957.71
2016-11-25T02:26:58.262Z,957.7
2016-11-25T02:27:58.249Z,957.65
2016-11-25T02:28:58.235Z,957.65
2016-11-25T02:29:58.221Z,957.62
2016-11-25T02:30:58.207Z,957.63
2016-11-25T02:31:58.193Z,957.64
2016-11-25T02:32:58.180Z,957.62
2016-11-25T02:33:58.166Z,957.69
2016-11-25T02:34:58.151Z,957.69
2016-11-25T02:35:58.137Z,957.68
2016-11-25T02:36:58.124Z,957.71
2016-11-25T02:37:58.109Z,957.75
2016-11-25T02:38:58.095Z,957.75
2016-11-25T02:39:58.082Z,957.81
2016-11-25T02:40:58.068Z,957.84
2016-11-25T02:41:58.054Z,957.87
2016-11-25T02:42:58.040Z,957.88
2016-11-25T02:43:58.027Z,957.83
2016-11-25T02:44:58.013Z,957.81
2016-11-25T02:45:57.999Z,957.85
2016-11-25T02:46:57.985Z,957.88
2016-11-25T02:47:57.971Z,957.86
2016-11-25T02:48:57.957Z,957.86
2016-11-25T02:49:57.943Z,957.93
2016-11-25T02:50:57.936Z,957.93
2016-11-25T02:51:57.916Z,957.92
2016-11-25T02:52:57.901Z,957.9
2016-11-25T02:53:57.887Z,957.98
2016-11-25T02:54:57.874Z,957.96
2016-11-25T02:55:57.859Z,957.93
2016-11-25T02:56:57.846Z,957.88
2016-11-25T02:57:57.832Z,957.85
2016-11-25T02:58:57.818Z,957.81
2016-11-25T02:59:57.804Z,957.8
2016-11-25T03:00:57.792Z,957.73
2016-11-25T03:01:57.777Z,957.68
2016-11-25T03:02:57.763Z,957.71
2016-11-25T03:03:57.747Z,957.65
2016-11-25T03:04:57.735Z,957.71
2016-11-25T03:05:57.721Z,957.69
2016-11-25T03:06:57.707Z,957.77
2016-11-25T03:07:57.693Z,957.72
2016-11-25T03:08:57.679Z,957.76
2016-11-25T03:09:57.666Z,957.78
2016-11-25T03:10:57.650Z,957.78
2016-11-25T03:11:57.637Z,957.8
2016-11-25T03:12:57.623Z,957.78
2016-11-25T03:13:57.610Z,957.78
2016-11-25T03:14:57.595Z,957.79
2016-11-25T03:15:57.581Z,957.84
2016-11-25T03:16:57.578Z,957.88
2016-11-25T03:17:57.553Z,957.91
2016-11-25T03:18:57.553Z,957.91
2016-11-25T03:19:57.525Z,957.94
2016-11-25T03:20:57.512Z,957.98
2016-11-25T03:21:57.497Z,957.98
2016-11-25T03:22:57.484Z,958.03
2016-11-25T03:23:57.471Z,958.05
2016-11-25T03:24:57.461Z,958.04
2016-11-25T03:25:57.449Z,957.99
2016-11-25T03:26:57.431Z,958
2016-11-25T03:27:57.414Z,958.04
2016-11-25T03:28:57.399Z,958
2016-11-25T03:29:57.385Z,957.99
2016-11-25T03:30:57.374Z,957.97
2016-11-25T03:31:57.358Z,957.97
2016-11-25T03:32:57.350Z,957.97
2016-11-25T03:33:57.329Z,957.99
2016-11-25T03:34:57.316Z,958.06
2016-11-25T03:35:57.302Z,958.08
2016-11-25T03:36:57.289Z,957.99
2016-11-25T03:37:57.273Z,958.05
2016-11-25T03:38:57.259Z,958.11
2016-11-25T03:39:57.246Z,958.13
2016-11-25T03:40:57.232Z,958.17
2016-11-25T03:41:57.218Z,958.18
2016-11-25T03:42:57.204Z,958.2
2016-11-25T03:43:57.189Z,958.23
2016-11-25T03:44:57.175Z,958.19
2016-11-25T03:45:57.162Z,958.23
2016-11-25T03:46:57.147Z,958.26
2016-11-25T03:47:57.133Z,958.24
2016-11-25T03:48:57.119Z,958.21
2016-11-25T03:49:57.105Z,958.22
2016-11-25T03:50:57.091Z,958.2
2016-11-25T03:51:57.076Z,958.17
2016-11-25T03:52:57.063Z,958.18
2016-11-25T03:53:57.050Z,958.15
2016-11-25T03:54:57.034Z,958.21
2016-11-25T03:55:57.020Z,958.16
2016-11-25T03:56:57.006Z,958.18
2016-11-25T03:57:56.994Z,958.18
2016-11-25T03:58:56.978Z,958.18
2016-11-25T03:59:56.965Z,958.16
2016-11-25T04:00:56.949Z,958.13
2016-11-25T04:01:56.935Z,958.17
2016-11-25T04:02:56.921Z,958.22
2016-11-25T04:03:56.908Z,958.21
2016-11-25T04:04:56.894Z,958.22
2016-11-25T04:05:56.879Z,958.23
2016-11-25T04:06:56.865Z,958.2
2016-11-25T04:07:56.851Z,958.18
2016-11-25T04:08:56.837Z,958.17
2016-11-25T04:09:56.822Z,958.24
2016-11-25T04:10:56.808Z,958.22
2016-11-25T04:11:56.796Z,958.24
2016-11-25T04:12:56.780Z,958.13
2016-11-25T04:13:56.765Z,958.13
2016-11-25T04:14:56.751Z,958.09
2016-11-25T04:15:56.738Z,958.05
2016-11-25T04:16:56.723Z,958.08
2016-11-25T04:17:56.709Z,957.99
2016-11-25T04:18:56.695Z,957.98
2016-11-25T04:19:56.691Z,957.98
2016-11-25T04:20:56.667Z,957.97
2016-11-25T04:21:56.653Z,957.98
2016-11-25T04:22:56.640Z,957.99
2016-11-25T04:23:56.624Z,957.92
2016-11-25T04:24:56.610Z,957.97
2016-11-25T04:25:56.596Z,957.94
2016-11-25T04:26:56.582Z,957.96
2016-11-25T04:27:56.567Z,957.9
2016-11-25T04:28:56.554Z,957.89
2016-11-25T04:29:56.540Z,957.86
2016-11-25T04:30:56.525Z,957.82
2016-11-25T04:31:56.511Z,957.8
2016-11-25T04:32:56.497Z,957.81
2016-11-25T04:33:56.483Z,957.75
2016-11-25T04:34:56.468Z,957.66
2016-11-25T04:35:56.453Z,957.58
2016-11-25T04:36:56.442Z,957.57
2016-11-25T04:37:56.427Z,957.53
2016-11-25T04:38:56.411Z,957.48
2016-11-25T04:39:56.398Z,957.52
2016-11-25T04:40:56.389Z,957.41
2016-11-25T04:41:56.369Z,957.46
2016-11-25T04:42:56.355Z,957.42
2016-11-25T04:43:56.341Z,957.46
2016-11-25T04:44:56.327Z,957.46
2016-11-25T04:45:56.312Z,957.44
2016-11-25T04:46:56.298Z,957.41
2016-11-25T04:47:56.295Z,957.43
2016-11-25T04:48:56.271Z,957.42
2016-11-25T04:49:56.256Z,957.35
2016-11-25T04:50:56.242Z,957.33
2016-11-25T04:51:56.228Z,957.31
2016-11-25T04:52:56.213Z,957.27
2016-11-25T04:53:56.200Z,957.24
2016-11-25T04:54:56.186Z,957.23
2016-11-25T04:55:56.172Z,957.2
2016-11-25T04:56:56.157Z,957.17
2016-11-25T04:57:56.143Z,957.11
2016-11-25T04:58:56.129Z,957.04
2016-11-25T04:59:56.117Z,956.99
2016-11-25T05:00:56.102Z,957.04
2016-11-25T05:01:56.088Z,957.03
2016-11-25T05:02:56.080Z,957.05
2016-11-25T05:03:56.060Z,957.07
2016-11-25T05:04:56.047Z,957.08
2016-11-25T05:05:56.031Z,957.1
2016-11-25T05:06:56.019Z,957.13
2016-11-25T05:07:56.004Z,957.16
2016-11-25T05:08:55.991Z,957.24
2016-11-25T05:09:55.977Z,957.28
2016-11-25T05:10:55.964Z,957.25
2016-11-25T05:11:55.949Z,957.24
2016-11-25T05:12:55.936Z,957.22
2016-11-25T05:13:55.922Z,957.19
2016-11-25T05:14:55.907Z,957.18
2016-11-25T05:15:55.893Z,957.2
2016-11-25T05:16:55.880Z,957.28
2016-11-25T05:17:55.866Z,957.37
2016-11-25T05:18:55.851Z,957.38
2016-11-25T05:19:55.838Z,957.38
2016-11-25T05:20:55.824Z,957.39
2016-11-25T05:21:55.810Z,957.47
2016-11-25T05:22:55.795Z,957.48
2016-11-25T05:23:55.781Z,957.5
2016-11-25T05:24:55.768Z,957.57
2016-11-25T05:25:55.754Z,957.55
2016-11-25T05:26:55.739Z,957.56
2016-11-25T05:27:55.725Z,957.52
2016-11-25T05:28:55.712Z,957.51
2016-11-25T05:29:55.696Z,957.53
2016-11-25T05:30:55.683Z,957.55
2016-11-25T05:31:55.670Z,957.54
2016-11-25T05:32:55.655Z,957.53
2016-11-25T05:33:55.640Z,957.52
2016-11-25T05:34:55.626Z,957.51
2016-11-25T05:35:55.612Z,957.47
2016-11-25T05:36:55.597Z,957.54
2016-11-25T05:37:55.585Z,957.56
2016-11-25T05:38:55.570Z,957.58
2016-11-25T05:39:55.555Z,957.53
2016-11-25T05:40:55.540Z,957.61
2016-11-25T05:41:55.526Z,957.64
2016-11-25T05:42:55.512Z,957.68
2016-11-25T05:43:55.498Z,957.69
2016-11-25T05:44:55.483Z,957.7
2016-11-25T05:45:55.469Z,957.67
2016-11-25T05:46:55.455Z,957.65
2016-11-25T05:47:55.445Z,957.62
2016-11-25T05:48:55.426Z,957.6
2016-11-25T05:49:55.412Z,957.61
2016-11-25T05:50:55.398Z,957.57
2016-11-25T05:51:55.383Z,957.59
2016-11-25T05:52:55.369Z,957.61
2016-11-25T05:53:55.356Z,957.58
2016-11-25T05:54:55.341Z,957.61
2016-11-25T05:55:55.327Z,957.6
2016-11-25T05:56:55.312Z,957.62
2016-11-25T05:57:55.298Z,957.66
2016-11-25T05:58:55.283Z,957.67
2016-11-25T05:59:55.269Z,957.67
2016-11-25T06:00:55.255Z,957.57
2016-11-25T06:01:55.241Z,957.59
2016-11-25T06:02:55.226Z,957.53
2016-11-25T06:03:55.212Z,957.58
2016-11-25T06:04:55.198Z,957.6
2016-11-25T06:05:55.182Z,957.62
2016-11-25T06:06:55.169Z,957.65
2016-11-25T06:07:55.154Z,957.62
2016-11-25T06:08:55.141Z,957.59
2016-11-25T06:09:55.128Z,957.58
2016-11-25T06:10:55.111Z,957.55
2016-11-25T06:11:55.097Z,957.56
2016-11-25T06:12:55.083Z,957.56
2016-11-25T06:13:55.069Z,957.53
2016-11-25T06:14:55.054Z,957.63
2016-11-25T06:15:55.039Z,957.62
2016-11-25T06:16:55.024Z,957.63
2016-11-25T06:17:55.015Z,957.66
2016-11-25T06:18:54.997Z,957.65
2016-11-25T06:19:54.982Z,957.68
2016-11-25T06:20:54.967Z,957.63
2016-11-25T06:21:54.953Z,957.66
2016-11-25T06:22:54.939Z,957.68
2016-11-25T06:23:54.925Z,957.72
2016-11-25T06:24:54.909Z,957.72
2016-11-25T06:25:54.899Z,957.74
2016-11-25T06:26:54.881Z,957.75
2016-11-25T06:27:54.866Z,957.76
2016-11-25T06:28:54.853Z,957.75
2016-11-25T06:29:54.838Z,957.74
2016-11-25T06:30:54.823Z,957.76
2016-11-25T06:31:54.809Z,957.75
2016-11-25T06:32:54.794Z,957.74
2016-11-25T06:33:54.780Z,957.76
2016-11-25T06:34:54.766Z,957.75
2016-11-25T06:35:54.751Z,957.78
2016-11-25T06:36:54.736Z,957.75
2016-11-25T06:37:54.723Z,957.77
2016-11-25T06:38:54.707Z,957.81
2016-11-25T06:39:54.693Z,957.82
2016-11-25T06:40:54.679Z,957.76
2016-11-25T06:41:54.665Z,957.77
2016-11-25T06:42:54.649Z,957.77
2016-11-25T06:43:54.636Z,957.67
2016-11-25T06:44:54.621Z,957.58
2016-11-25T06:45:54.607Z,957.59
2016-11-25T06:46:54.591Z,957.55
2016-11-25T06:47:54.578Z,957.58
2016-11-25T06:48:54.563Z,957.58
2016-11-25T06:49:54.548Z,957.58
2016-11-25T06:50:54.533Z,957.57
2016-11-25T06:51:54.519Z,957.56
2016-11-25T06:52:54.506Z,957.57
2016-11-25T06:53:54.491Z,957.53
2016-11-25T06:54:54.476Z,957.57
2016-11-25T06:55:54.462Z,957.59
2016-11-25T06:56:54.448Z,957.53
2016-11-25T06:57:54.437Z,957.55
2016-11-25T06:58:54.418Z,957.57
2016-11-25T06:59:54.403Z,957.51
2016-11-25T07:00:54.388Z,957.53
2016-11-25T07:01:54.374Z,957.52
2016-11-25T07:02:54.360Z,957.57
2016-11-25T07:03:54.346Z,957.56
2016-11-25T07:04:54.331Z,957.64
2016-11-25T07:05:54.317Z,957.6
2016-11-25T07:06:54.303Z,957.63
2016-11-25T07:07:54.288Z,957.65
2016-11-25T07:08:54.273Z,957.72
2016-11-25T07:09:54.260Z,957.75
2016-11-25T07:10:54.245Z,957.76
2016-11-25T07:11:54.231Z,957.75
2016-11-25T07:12:54.215Z,957.75
2016-11-25T07:13:54.208Z,957.79
2016-11-25T07:14:54.225Z,957.82
2016-11-25T07:15:54.173Z,957.83
2016-11-25T07:16:54.159Z,957.81
2016-11-25T07:17:54.144Z,957.84
2016-11-25T07:18:54.130Z,957.85
2016-11-25T07:19:54.115Z,957.91
2016-11-25T07:20:54.103Z,957.94
2016-11-25T07:21:54.087Z,957.93
2016-11-25T07:22:54.072Z,957.95
2016-11-25T07:23:54.058Z,958
2016-11-25T07:24:54.044Z,957.99
2016-11-25T07:25:54.030Z,957.97
2016-11-25T07:26:54.015Z,957.99
2016-11-25T07:27:54.000Z,957.98
2016-11-25T07:28:53.986Z,957.97
2016-11-25T07:29:53.972Z,958
2016-11-25T07:30:53.958Z,958
2016-11-25T07:31:53.944Z,957.98
2016-11-25T07:32:53.931Z,957.96
2016-11-25T07:33:53.914Z,957.94
2016-11-25T07:34:53.900Z,958.01
2016-11-25T07:35:53.886Z,958.04
2016-11-25T07:36:53.872Z,958.03
2016-11-25T07:37:53.856Z,958.04
2016-11-25T07:38:53.842Z,958.05
2016-11-25T07:39:53.828Z,958.03
2016-11-25T07:40:53.812Z,958.1
2016-11-25T07:41:53.799Z,958.1
2016-11-25T07:42:53.785Z,958.13
2016-11-25T07:43:53.769Z,958.13
2016-11-25T07:44:53.754Z,958.08
2016-11-25T07:45:53.739Z,958.09
2016-11-25T07:46:53.725Z,958.17
2016-11-25T07:47:53.711Z,958.14
2016-11-25T07:48:53.695Z,958.06
2016-11-25T07:49:53.681Z,958.09
2016-11-25T07:50:53.666Z,958.1
2016-11-25T07:51:53.651Z,958.07
2016-11-25T07:52:53.636Z,958.08
2016-11-25T07:53:53.622Z,958.08
2016-11-25T07:54:53.608Z,958.12
2016-11-25T07:55:53.592Z,958.09
2016-11-25T07:56:53.578Z,958.09
2016-11-25T07:57:53.563Z,958.1
2016-11-25T07:58:53.551Z,958.07
2016-11-25T07:59:53.533Z,958.08
2016-11-25T08:00:53.519Z,958.1
2016-11-25T08:01:53.504Z,958.1
2016-11-25T08:02:53.489Z,958.15
2016-11-25T08:03:53.474Z,958.14
2016-11-25T08:04:53.459Z,958.11
2016-11-25T08:05:53.445Z,958.09
2016-11-25T08:06:53.430Z,958.09
2016-11-25T08:07:53.415Z,958.13
2016-11-25T08:08:53.400Z,958.17
2016-11-25T08:09:53.385Z,958.23
2016-11-25T08:10:53.370Z,958.22
2016-11-25T08:11:53.354Z,958.24
2016-11-25T08:12:53.340Z,958.22
2016-11-25T08:13:53.324Z,958.23
2016-11-25T08:14:53.310Z,958.25
2016-11-25T08:15:53.295Z,958.24
2016-11-25T08:16:53.281Z,958.29
2016-11-25T08:17:53.265Z,958.32
2016-11-25T08:18:53.250Z,958.33
2016-11-25T08:19:53.235Z,958.31
2016-11-25T08:20:53.221Z,958.25
2016-11-25T08:21:53.205Z,958.25
2016-11-25T08:22:53.308Z,958.28
2016-11-25T08:23:53.176Z,958.27
2016-11-25T08:24:53.160Z,958.31
2016-11-25T08:25:53.145Z,958.28
2016-11-25T08:26:53.131Z,958.24
2016-11-25T08:27:53.117Z,958.2
2016-11-25T08:28:53.100Z,958.18
2016-11-25T08:29:53.086Z,958.19
2016-11-25T08:30:53.071Z,958.22
2016-11-25T08:31:53.056Z,958.2
2016-11-25T08:32:53.041Z,958.22
2016-11-25T08:33:53.026Z,958.24
2016-11-25T08:34:53.011Z,958.23
2016-11-25T08:35:52.996Z,958.26
2016-11-25T08:36:52.981Z,958.21
2016-11-25T08:37:52.966Z,958.24
2016-11-25T08:38:52.952Z,958.29
2016-11-25T08:39:53.052Z,958.25
2016-11-25T08:40:52.921Z,958.28
2016-11-25T08:41:52.908Z,958.27
2016-11-25T08:42:52.892Z,958.25
2016-11-25T08:43:52.876Z,958.21
2016-11-25T08:44:52.862Z,958.16
2016-11-25T08:45:52.847Z,958.16
2016-11-25T08:46:52.832Z,958.19
2016-11-25T08:47:52.817Z,958.2
2016-11-25T08:48:52.803Z,958.26
2016-11-25T08:49:52.827Z,958.26
2016-11-25T08:50:52.775Z,958.25
2016-11-25T08:51:52.759Z,958.3
2016-11-25T08:52:52.745Z,958.34
2016-11-25T08:53:52.839Z,958.34
2016-11-25T08:54:52.716Z,958.37
2016-11-25T08:55:52.701Z,958.42
2016-11-25T08:56:52.685Z,958.44
2016-11-25T08:57:52.671Z,958.44
2016-11-25T08:58:52.655Z,958.43
2016-11-25T08:59:52.679Z,958.46
2016-11-25T09:00:52.626Z,958.49
2016-11-25T09:01:52.735Z,958.52
2016-11-25T09:02:52.597Z,958.51
2016-11-25T09:03:52.582Z,958.52
2016-11-25T09:04:52.567Z,958.48
2016-11-25T09:05:52.657Z,958.48
2016-11-25T09:06:52.612Z,958.49
2016-11-25T09:07:52.524Z,958.48
2016-11-25T09:08:52.580Z,958.5
2016-11-25T09:09:52.545Z,958.42
2016-11-25T09:10:52.481Z,958.51
2016-11-25T09:11:52.465Z,958.48
2016-11-25T09:12:52.457Z,958.45
2016-11-25T09:13:52.443Z,958.43
2016-11-25T09:14:52.421Z,958.44
2016-11-25T09:15:52.406Z,958.47
2016-11-25T09:16:52.390Z,958.49
2016-11-25T09:17:52.375Z,958.53
2016-11-25T09:18:52.361Z,958.47
2016-11-25T09:19:52.347Z,958.5
2016-11-25T09:20:52.332Z,958.45
2016-11-25T09:21:52.316Z,958.42
2016-11-25T09:22:52.303Z,958.39
2016-11-25T09:23:52.287Z,958.36
2016-11-25T09:24:52.408Z,958.37
2016-11-25T09:25:52.394Z,958.4
2016-11-25T09:26:52.243Z,958.39
2016-11-25T09:27:52.228Z,958.41
2016-11-25T09:28:52.214Z,958.46
2016-11-25T09:29:52.199Z,958.45
2016-11-25T09:30:52.184Z,958.46
2016-11-25T09:31:52.169Z,958.43
2016-11-25T09:32:52.155Z,958.41
2016-11-25T09:33:52.142Z,958.43
2016-11-25T09:34:52.125Z,958.4
2016-11-25T09:35:52.110Z,958.41
2016-11-25T09:36:52.097Z,958.44
2016-11-25T09:37:52.081Z,958.46
2016-11-25T09:38:52.067Z,958.48
2016-11-25T09:39:52.054Z,958.45
2016-11-25T09:40:52.038Z,958.44
2016-11-25T09:41:52.024Z,958.44
2016-11-25T09:42:52.009Z,958.45
2016-11-25T09:43:51.994Z,958.43
2016-11-25T09:44:51.980Z,958.42
2016-11-25T09:45:51.965Z,958.39
2016-11-25T09:46:51.955Z,958.36
2016-11-25T09:47:51.936Z,958.35
2016-11-25T09:48:51.921Z,958.39
2016-11-25T09:49:51.909Z,958.42
2016-11-25T09:50:51.893Z,958.41
2016-11-25T09:51:51.879Z,958.35
2016-11-25T09:52:51.863Z,958.31
2016-11-25T09:53:51.850Z,958.33
2016-11-25T09:54:51.835Z,958.32
2016-11-25T09:55:51.821Z,958.32
2016-11-25T09:56:51.805Z,958.26
2016-11-25T09:57:51.791Z,958.3
2016-11-25T09:58:51.777Z,958.29
2016-11-25T09:59:51.762Z,958.34
2016-11-25T10:00:51.747Z,958.25
2016-11-25T10:01:51.735Z,958.25
2016-11-25T10:02:51.720Z,958.25
2016-11-25T10:03:51.704Z,958.27
2016-11-25T10:04:51.780Z,958.27
2016-11-25T10:05:51.677Z,958.3
2016-11-25T10:06:51.661Z,958.27
2016-11-25T10:07:51.647Z,958.27
2016-11-25T10:08:51.633Z,958.23
2016-11-25T10:09:51.620Z,958.25
2016-11-25T10:10:51.603Z,958.23
2016-11-25T10:11:51.589Z,958.22
2016-11-25T10:12:51.575Z,958.23
2016-11-25T10:13:51.560Z,958.25
2016-11-25T10:14:51.545Z,958.27
2016-11-25T10:15:51.531Z,958.27
2016-11-25T10:16:51.521Z,958.21
2016-11-25T10:17:51.503Z,958.29
2016-11-25T10:18:51.487Z,958.29
2016-11-25T10:19:51.473Z,958.23
2016-11-25T10:20:51.459Z,958.23
2016-11-25T10:21:51.450Z,958.23
2016-11-25T10:22:51.430Z,958.19
2016-11-25T10:23:51.415Z,958.23
2016-11-25T10:24:51.402Z,958.22
2016-11-25T10:25:51.390Z,958.19
2016-11-25T10:26:51.373Z,958.2
2016-11-25T10:27:51.358Z,958.23
2016-11-25T10:28:51.344Z,958.18
2016-11-25T10:29:51.329Z,958.15
2016-11-25T10:30:51.316Z,958.16
2016-11-25T10:31:51.302Z,958.13
2016-11-25T10:32:51.550Z,958.18
2016-11-25T10:33:51.273Z,958.18
2016-11-25T10:34:51.258Z,958.15
2016-11-25T10:35:51.245Z,958.15
2016-11-25T10:36:51.230Z,958.14
2016-11-25T10:37:51.216Z,958.09
2016-11-25T10:38:51.202Z,958.06
2016-11-25T10:39:51.189Z,958.06
2016-11-25T10:40:51.174Z,958.05
2016-11-25T10:41:51.201Z,958.01
2016-11-25T10:42:51.436Z,958
2016-11-25T10:43:51.138Z,958.01
2016-11-25T10:44:51.117Z,958
2016-11-25T10:45:51.103Z,957.94
2016-11-25T10:46:51.090Z,957.97
2016-11-25T10:47:51.074Z,958
2016-11-25T10:48:51.061Z,957.99
2016-11-25T10:49:51.047Z,957.98
2016-11-25T10:50:51.032Z,957.97
2016-11-25T10:51:51.018Z,958.02
2016-11-25T10:52:51.004Z,957.99
2016-11-25T10:53:50.991Z,957.98
2016-11-25T10:54:50.976Z,957.95
2016-11-25T10:55:50.962Z,957.99
2016-11-25T10:56:50.948Z,957.93
2016-11-25T10:57:50.935Z,957.94
2016-11-25T10:58:50.920Z,957.89
2016-11-25T10:59:50.906Z,957.9
2016-11-25T11:00:50.991Z,957.92
2016-11-25T11:01:50.878Z,957.85
2016-11-25T11:02:50.868Z,957.89
2016-11-25T11:03:50.851Z,957.89
2016-11-25T11:04:50.837Z,957.86
2016-11-25T11:05:50.822Z,957.88
2016-11-25T11:06:50.809Z,957.87
2016-11-25T11:07:50.795Z,957.86
2016-11-25T11:08:50.781Z,957.85
2016-11-25T11:09:50.767Z,957.83
2016-11-25T11:10:50.753Z,957.82
2016-11-25T11:11:50.740Z,957.84
2016-11-25T11:12:50.724Z,957.78
2016-11-25T11:13:50.712Z,957.76
2016-11-25T11:14:50.698Z,957.74
2016-11-25T11:15:50.685Z,957.7
2016-11-25T11:16:50.670Z,957.73
2016-11-25T11:17:50.657Z,957.72
2016-11-25T11:18:50.649Z,957.75
2016-11-25T11:19:50.629Z,957.74
2016-11-25T11:20:50.615Z,957.82
2016-11-25T11:21:50.602Z,957.82
2016-11-25T11:22:50.589Z,957.78
2016-11-25T11:23:50.574Z,957.76
2016-11-25T11:24:50.560Z,957.8
2016-11-25T11:25:50.548Z,957.79
2016-11-25T11:26:50.534Z,957.81
2016-11-25T11:27:50.519Z,957.82
2016-11-25T11:28:50.508Z,957.83
2016-11-25T11:29:50.493Z,957.85
2016-11-25T11:30:50.484Z,957.86
2016-11-25T11:31:50.467Z,957.85
2016-11-25T11:32:50.453Z,957.84
2016-11-25T11:33:50.439Z,957.88
2016-11-25T11:34:50.425Z,957.89
2016-11-25T11:35:50.411Z,957.87
2016-11-25T11:36:50.400Z,957.86
2016-11-25T11:37:50.385Z,957.87
2016-11-25T11:38:50.371Z,957.83
2016-11-25T11:39:50.357Z,957.88
2016-11-25T11:40:50.347Z,957.83
2016-11-25T11:41:50.331Z,957.87
2016-11-25T11:42:50.322Z,957.9
2016-11-25T11:43:50.303Z,957.85
2016-11-25T11:44:50.393Z,957.89
2016-11-25T11:45:50.277Z,957.8
2016-11-25T11:46:50.263Z,957.82
2016-11-25T11:47:50.251Z,957.81
2016-11-25T11:48:50.238Z,957.79
2016-11-25T11:49:50.224Z,957.79
2016-11-25T11:50:50.211Z,957.76
2016-11-25T11:51:50.198Z,957.78
2016-11-25T11:52:50.185Z,957.74
2016-11-25T11:53:50.175Z,957.75
2016-11-25T11:54:50.158Z,957.76
2016-11-25T11:55:50.146Z,957.77
2016-11-25T11:56:50.132Z,957.77
2016-11-25T11:57:50.119Z,957.82
2016-11-25T11:58:50.106Z,957.81
2016-11-25T11:59:50.093Z,957.78
2016-11-25T12:00:50.080Z,957.77
2016-11-25T12:01:50.067Z,957.74
2016-11-25T12:02:50.053Z,957.74
2016-11-25T12:03:50.040Z,957.75
2016-11-25T12:04:50.027Z,957.76
2016-11-25T12:05:50.014Z,957.7
2016-11-25T12:06:50.001Z,957.69
2016-11-25T12:07:49.990Z,957.7
2016-11-25T12:08:49.974Z,957.67
2016-11-25T12:09:49.961Z,957.74
2016-11-25T12:10:49.948Z,957.74
2016-11-25T12:11:49.933Z,957.8
2016-11-25T12:12:49.921Z,957.78
2016-11-25T12:13:49.908Z,957.78
2016-11-25T12:14:49.895Z,957.73
2016-11-25T12:15:49.882Z,957.78
2016-11-25T12:16:49.868Z,957.75
2016-11-25T12:17:49.854Z,957.74
2016-11-25T12:18:49.841Z,957.76
2016-11-25T12:19:49.827Z,957.74
2016-11-25T12:20:49.815Z,957.73
2016-11-25T12:21:49.802Z,957.74
2016-11-25T12:22:49.787Z,957.7
2016-11-25T12:23:49.774Z,957.74
2016-11-25T12:24:49.761Z,957.72
2016-11-25T12:25:49.747Z,957.8
2016-11-25T12:26:49.734Z,957.74
2016-11-25T12:27:49.721Z,957.74
2016-11-25T12:28:49.707Z,957.7
2016-11-25T12:29:49.693Z,957.69
2016-11-25T12:30:49.680Z,957.68